sensor_id;sensor_type;location;lat;lon;timestamp;temperature;humidity
15364;DHT22;7781;49.690;6.472;2022-07-21T00:00:18;19.20;99.90
15364;DHT22;7781;49.690;6.472;2022-07-21T00:02:49;19.20;99.90
15364;DHT22;7781;49.690;6.472;2022-07-21T00:05:18;19.10;99.90
15364;DHT22;7781;49.690;6.472;2022-07-21T00:07:47;19.20;99.90
15364;DHT22;7781;49.690;6.472;2022-07-21T00:10:16;19.20;99.90
15364;DHT22;7781;49.690;6.472;2022-07-21T00:12:44;19.30;99.90
15364;DHT22;7781;49.690;6.472;2022-07-21T00:15:15;19.20;99.90
15364;DHT22;7781;49.690;6.472;2022-07-21T00:17:44;19.10;99.90
15364;DHT22;7781;49.690;6.472;2022-07-21T00:20:15;19.10;99.90
15364;DHT22;7781;49.690;6.472;2022-07-21T00:22:44;19.10;99.90
15364;DHT22;7781;49.690;6.472;2022-07-21T00:25:13;19.10;99.90
15364;DHT22;7781;49.690;6.472;2022-07-21T00:27:42;19.10;99.90
15364;DHT22;7781;49.690;6.472;2022-07-21T00:30:12;19.10;99.90
15364;DHT22;7781;49.690;6.472;2022-07-21T00:32:41;19.00;99.90
15364;DHT22;7781;49.690;6.472;2022-07-21T00:35:10;18.90;99.90
15364;DHT22;7781;49.690;6.472;2022-07-21T00:37:41;18.80;99.90
15364;DHT22;7781;49.690;6.472;2022-07-21T00:40:10;18.80;99.90
15364;DHT22;7781;49.690;6.472;2022-07-21T00:42:40;18.70;99.90
15364;DHT22;7781;49.690;6.472;2022-07-21T00:45:09;18.60;99.90
15364;DHT22;7781;49.690;6.472;2022-07-21T00:47:38;18.60;99.90
15364;DHT22;7781;49.690;6.472;2022-07-21T00:50:08;18.50;99.90
15364;DHT22;7781;49.690;6.472;2022-07-21T00:52:37;18.50;99.90
15364;DHT22;7781;49.690;6.472;2022-07-21T00:55:08;18.50;99.90
15364;DHT22;7781;49.690;6.472;2022-07-21T00:57:38;18.40;99.90
15364;DHT22;7781;49.690;6.472;2022-07-21T01:00:09;18.40;99.90
15364;DHT22;7781;49.690;6.472;2022-07-21T01:02:38;18.40;99.90
15364;DHT22;7781;49.690;6.472;2022-07-21T01:05:08;18.50;99.90
15364;DHT22;7781;49.690;6.472;2022-07-21T01:07:40;18.50;99.90
15364;DHT22;7781;49.690;6.472;2022-07-21T01:10:10;18.60;99.90
15364;DHT22;7781;49.690;6.472;2022-07-21T01:12:39;18.60;99.90
15364;DHT22;7781;49.690;6.472;2022-07-21T01:15:10;18.70;99.90
15364;DHT22;7781;49.690;6.472;2022-07-21T01:17:39;18.70;99.90
15364;DHT22;7781;49.690;6.472;2022-07-21T01:20:10;18.80;99.90
15364;DHT22;7781;49.690;6.472;2022-07-21T01:22:41;18.80;99.90
15364;DHT22;7781;49.690;6.472;2022-07-21T01:25:11;18.80;99.90
15364;DHT22;7781;49.690;6.472;2022-07-21T01:27:39;18.80;99.90
15364;DHT22;7781;49.690;6.472;2022-07-21T01:30:09;18.80;99.90
15364;DHT22;7781;49.690;6.472;2022-07-21T01:32:38;18.90;99.90
15364;DHT22;7781;49.690;6.472;2022-07-21T01:35:09;18.90;99.90
15364;DHT22;7781;49.690;6.472;2022-07-21T01:37:42;18.90;99.90
15364;DHT22;7781;49.690;6.472;2022-07-21T01:40:11;18.90;99.90
15364;DHT22;7781;49.690;6.472;2022-07-21T01:42:57;18.90;99.90
15364;DHT22;7781;49.690;6.472;2022-07-21T01:45:26;18.90;99.90
15364;DHT22;7781;49.690;6.472;2022-07-21T01:47:55;19.00;99.90
15364;DHT22;7781;49.690;6.472;2022-07-21T01:50:23;19.00;99.90
15364;DHT22;7781;49.690;6.472;2022-07-21T01:52:56;19.00;99.90
15364;DHT22;7781;49.690;6.472;2022-07-21T01:55:25;18.90;99.90
15364;DHT22;7781;49.690;6.472;2022-07-21T01:57:55;18.80;99.90
15364;DHT22;7781;49.690;6.472;2022-07-21T02:00:23;18.80;99.90
15364;DHT22;7781;49.690;6.472;2022-07-21T02:02:51;18.70;99.90
15364;DHT22;7781;49.690;6.472;2022-07-21T02:05:20;18.70;99.90
15364;DHT22;7781;49.690;6.472;2022-07-21T02:07:48;18.70;99.90
15364;DHT22;7781;49.690;6.472;2022-07-21T02:10:17;18.60;99.90
15364;DHT22;7781;49.690;6.472;2022-07-21T02:12:45;18.60;99.90
15364;DHT22;7781;49.690;6.472;2022-07-21T02:15:13;18.60;99.90
15364;DHT22;7781;49.690;6.472;2022-07-21T02:17:42;18.60;99.90
15364;DHT22;7781;49.690;6.472;2022-07-21T02:20:10;18.60;99.90
15364;DHT22;7781;49.690;6.472;2022-07-21T02:22:39;18.60;99.90
15364;DHT22;7781;49.690;6.472;2022-07-21T02:25:07;18.70;99.90
15364;DHT22;7781;49.690;6.472;2022-07-21T02:27:37;18.60;99.90
15364;DHT22;7781;49.690;6.472;2022-07-21T02:30:05;18.60;99.90
15364;DHT22;7781;49.690;6.472;2022-07-21T02:32:34;18.70;99.90
15364;DHT22;7781;49.690;6.472;2022-07-21T02:35:02;18.70;99.90
15364;DHT22;7781;49.690;6.472;2022-07-21T02:37:30;18.70;99.90
15364;DHT22;7781;49.690;6.472;2022-07-21T02:39:58;18.70;99.90
15364;DHT22;7781;49.690;6.472;2022-07-21T02:42:27;18.80;99.90
15364;DHT22;7781;49.690;6.472;2022-07-21T02:44:56;18.80;99.90
15364;DHT22;7781;49.690;6.472;2022-07-21T02:47:24;18.80;99.90
15364;DHT22;7781;49.690;6.472;2022-07-21T02:49:52;18.80;99.90
15364;DHT22;7781;49.690;6.472;2022-07-21T02:52:20;18.80;99.90
15364;DHT22;7781;49.690;6.472;2022-07-21T02:54:48;18.80;99.90
15364;DHT22;7781;49.690;6.472;2022-07-21T02:57:16;18.80;99.90
15364;DHT22;7781;49.690;6.472;2022-07-21T02:59:44;18.80;99.90
15364;DHT22;7781;49.690;6.472;2022-07-21T03:02:14;18.80;99.90
15364;DHT22;7781;49.690;6.472;2022-07-21T03:04:42;18.80;99.90
15364;DHT22;7781;49.690;6.472;2022-07-21T03:07:10;18.80;99.90
15364;DHT22;7781;49.690;6.472;2022-07-21T03:09:38;18.80;99.90
15364;DHT22;7781;49.690;6.472;2022-07-21T03:12:06;18.70;99.90
15364;DHT22;7781;49.690;6.472;2022-07-21T03:14:34;18.70;99.90
15364;DHT22;7781;49.690;6.472;2022-07-21T03:17:03;18.70;99.90
15364;DHT22;7781;49.690;6.472;2022-07-21T03:19:32;18.70;99.90
15364;DHT22;7781;49.690;6.472;2022-07-21T03:22:00;18.60;99.90
15364;DHT22;7781;49.690;6.472;2022-07-21T03:24:29;18.60;99.90
15364;DHT22;7781;49.690;6.472;2022-07-21T03:26:57;18.50;99.90
15364;DHT22;7781;49.690;6.472;2022-07-21T03:29:33;18.50;99.90
15364;DHT22;7781;49.690;6.472;2022-07-21T03:32:01;18.40;99.90
15364;DHT22;7781;49.690;6.472;2022-07-21T03:34:29;18.40;99.90
15364;DHT22;7781;49.690;6.472;2022-07-21T03:36:59;18.40;99.90
15364;DHT22;7781;49.690;6.472;2022-07-21T03:39:27;18.40;99.90
15364;DHT22;7781;49.690;6.472;2022-07-21T03:41:55;18.40;99.90
15364;DHT22;7781;49.690;6.472;2022-07-21T03:44:23;18.40;99.90
15364;DHT22;7781;49.690;6.472;2022-07-21T03:46:51;18.40;99.90
15364;DHT22;7781;49.690;6.472;2022-07-21T03:49:19;18.50;99.90
15364;DHT22;7781;49.690;6.472;2022-07-21T03:51:49;18.50;99.90
15364;DHT22;7781;49.690;6.472;2022-07-21T03:54:19;18.60;99.90
15364;DHT22;7781;49.690;6.472;2022-07-21T03:56:47;18.60;99.90
15364;DHT22;7781;49.690;6.472;2022-07-21T03:59:15;18.60;99.90
15364;DHT22;7781;49.690;6.472;2022-07-21T04:01:44;18.50;99.90
15364;DHT22;7781;49.690;6.472;2022-07-21T04:04:12;18.40;99.90
15364;DHT22;7781;49.690;6.472;2022-07-21T04:06:40;18.40;99.90
15364;DHT22;7781;49.690;6.472;2022-07-21T04:09:08;18.40;99.90
15364;DHT22;7781;49.690;6.472;2022-07-21T04:11:38;18.40;99.90
15364;DHT22;7781;49.690;6.472;2022-07-21T04:14:06;18.40;99.90
15364;DHT22;7781;49.690;6.472;2022-07-21T04:16:34;18.50;99.90
15364;DHT22;7781;49.690;6.472;2022-07-21T04:19:02;18.40;99.90
15364;DHT22;7781;49.690;6.472;2022-07-21T04:21:30;18.40;99.90
15364;DHT22;7781;49.690;6.472;2022-07-21T04:24:00;18.40;99.90
15364;DHT22;7781;49.690;6.472;2022-07-21T04:26:32;18.40;99.90
15364;DHT22;7781;49.690;6.472;2022-07-21T04:29:01;18.40;99.90
15364;DHT22;7781;49.690;6.472;2022-07-21T04:31:29;18.30;99.90
15364;DHT22;7781;49.690;6.472;2022-07-21T04:33:57;18.40;99.90
15364;DHT22;7781;49.690;6.472;2022-07-21T04:36:25;18.40;99.90
15364;DHT22;7781;49.690;6.472;2022-07-21T04:38:54;18.40;99.90
15364;DHT22;7781;49.690;6.472;2022-07-21T04:41:22;18.40;99.90
15364;DHT22;7781;49.690;6.472;2022-07-21T04:43:51;18.50;99.90
15364;DHT22;7781;49.690;6.472;2022-07-21T04:46:21;18.60;99.90
15364;DHT22;7781;49.690;6.472;2022-07-21T04:48:49;18.60;99.90
15364;DHT22;7781;49.690;6.472;2022-07-21T04:51:18;18.60;99.90
15364;DHT22;7781;49.690;6.472;2022-07-21T04:53:46;18.60;99.90
15364;DHT22;7781;49.690;6.472;2022-07-21T04:56:14;18.60;99.90
15364;DHT22;7781;49.690;6.472;2022-07-21T04:58:42;18.60;99.90
15364;DHT22;7781;49.690;6.472;2022-07-21T05:01:10;18.70;99.90
15364;DHT22;7781;49.690;6.472;2022-07-21T05:03:40;18.70;99.90
15364;DHT22;7781;49.690;6.472;2022-07-21T05:06:08;18.70;99.90
15364;DHT22;7781;49.690;6.472;2022-07-21T05:08:36;18.70;99.90
15364;DHT22;7781;49.690;6.472;2022-07-21T05:11:04;18.70;99.90
15364;DHT22;7781;49.690;6.472;2022-07-21T05:13:32;18.80;99.90
15364;DHT22;7781;49.690;6.472;2022-07-21T05:16:00;18.80;99.90
15364;DHT22;7781;49.690;6.472;2022-07-21T05:18:28;18.90;99.90
15364;DHT22;7781;49.690;6.472;2022-07-21T05:20:58;18.80;99.90
15364;DHT22;7781;49.690;6.472;2022-07-21T05:23:26;18.80;99.90
15364;DHT22;7781;49.690;6.472;2022-07-21T05:25:54;18.80;99.90
15364;DHT22;7781;49.690;6.472;2022-07-21T05:28:28;18.70;99.90
15364;DHT22;7781;49.690;6.472;2022-07-21T05:30:57;18.70;99.90
15364;DHT22;7781;49.690;6.472;2022-07-21T05:33:25;18.70;99.90
15364;DHT22;7781;49.690;6.472;2022-07-21T05:35:53;18.70;99.90
15364;DHT22;7781;49.690;6.472;2022-07-21T05:38:23;18.70;99.90
15364;DHT22;7781;49.690;6.472;2022-07-21T05:40:54;18.70;99.90
15364;DHT22;7781;49.690;6.472;2022-07-21T05:43:22;18.60;99.90
15364;DHT22;7781;49.690;6.472;2022-07-21T05:45:52;18.60;99.90
15364;DHT22;7781;49.690;6.472;2022-07-21T05:48:25;18.60;99.90
15364;DHT22;7781;49.690;6.472;2022-07-21T05:50:53;18.60;99.90
15364;DHT22;7781;49.690;6.472;2022-07-21T05:53:23;18.70;99.90
15364;DHT22;7781;49.690;6.472;2022-07-21T05:55:51;18.80;99.90
15364;DHT22;7781;49.690;6.472;2022-07-21T05:58:19;18.80;99.90
15364;DHT22;7781;49.690;6.472;2022-07-21T06:00:51;18.80;99.90
15364;DHT22;7781;49.690;6.472;2022-07-21T06:03:34;18.90;99.90
15364;DHT22;7781;49.690;6.472;2022-07-21T06:06:02;18.90;99.90
15364;DHT22;7781;49.690;6.472;2022-07-21T06:08:32;19.00;99.90
15364;DHT22;7781;49.690;6.472;2022-07-21T06:11:00;19.10;99.90
15364;DHT22;7781;49.690;6.472;2022-07-21T06:13:28;19.10;99.90
15364;DHT22;7781;49.690;6.472;2022-07-21T06:15:56;19.10;99.90
15364;DHT22;7781;49.690;6.472;2022-07-21T06:18:25;19.10;99.90
15364;DHT22;7781;49.690;6.472;2022-07-21T06:20:53;19.20;99.90
15364;DHT22;7781;49.690;6.472;2022-07-21T06:23:21;19.30;99.90
15364;DHT22;7781;49.690;6.472;2022-07-21T06:25:51;19.40;99.90
15364;DHT22;7781;49.690;6.472;2022-07-21T06:28:20;19.50;99.90
15364;DHT22;7781;49.690;6.472;2022-07-21T06:30:49;19.60;99.90
15364;DHT22;7781;49.690;6.472;2022-07-21T06:33:17;19.60;99.90
15364;DHT22;7781;49.690;6.472;2022-07-21T06:35:45;19.70;99.90
15364;DHT22;7781;49.690;6.472;2022-07-21T06:38:13;19.60;99.90
15364;DHT22;7781;49.690;6.472;2022-07-21T06:40:42;19.70;99.90
15364;DHT22;7781;49.690;6.472;2022-07-21T06:43:11;19.70;99.90
15364;DHT22;7781;49.690;6.472;2022-07-21T06:45:56;19.70;99.90
15364;DHT22;7781;49.690;6.472;2022-07-21T06:48:25;19.70;99.90
15364;DHT22;7781;49.690;6.472;2022-07-21T06:50:54;19.80;99.90
15364;DHT22;7781;49.690;6.472;2022-07-21T06:53:23;19.90;99.90
15364;DHT22;7781;49.690;6.472;2022-07-21T06:55:52;19.90;99.90
15364;DHT22;7781;49.690;6.472;2022-07-21T06:58:30;20.00;99.90
15364;DHT22;7781;49.690;6.472;2022-07-21T07:01:06;20.00;99.90
15364;DHT22;7781;49.690;6.472;2022-07-21T07:03:35;20.10;99.90
15364;DHT22;7781;49.690;6.472;2022-07-21T07:06:04;20.30;99.90
15364;DHT22;7781;49.690;6.472;2022-07-21T07:08:33;20.40;99.90
15364;DHT22;7781;49.690;6.472;2022-07-21T07:11:09;20.40;99.90
15364;DHT22;7781;49.690;6.472;2022-07-21T07:13:39;20.50;99.90
15364;DHT22;7781;49.690;6.472;2022-07-21T07:16:27;20.40;99.90
15364;DHT22;7781;49.690;6.472;2022-07-21T07:18:55;20.40;99.90
15364;DHT22;7781;49.690;6.472;2022-07-21T07:21:24;20.50;99.90
15364;DHT22;7781;49.690;6.472;2022-07-21T07:23:52;20.60;99.90
15364;DHT22;7781;49.690;6.472;2022-07-21T07:26:21;20.70;99.90
15364;DHT22;7781;49.690;6.472;2022-07-21T07:28:51;20.90;99.90
15364;DHT22;7781;49.690;6.472;2022-07-21T07:31:19;20.90;99.90
15364;DHT22;7781;49.690;6.472;2022-07-21T07:33:47;21.00;99.90
15364;DHT22;7781;49.690;6.472;2022-07-21T07:36:16;20.90;99.90
15364;DHT22;7781;49.690;6.472;2022-07-21T07:38:44;20.90;99.90
15364;DHT22;7781;49.690;6.472;2022-07-21T07:41:15;20.90;99.90
15364;DHT22;7781;49.690;6.472;2022-07-21T07:43:43;21.10;99.90
15364;DHT22;7781;49.690;6.472;2022-07-21T07:46:13;21.20;99.90
15364;DHT22;7781;49.690;6.472;2022-07-21T07:48:42;21.40;99.90
15364;DHT22;7781;49.690;6.472;2022-07-21T07:51:11;21.40;99.90
15364;DHT22;7781;49.690;6.472;2022-07-21T07:53:40;21.50;99.90
15364;DHT22;7781;49.690;6.472;2022-07-21T07:56:08;21.50;99.90
15364;DHT22;7781;49.690;6.472;2022-07-21T07:58:36;21.40;99.90
15364;DHT22;7781;49.690;6.472;2022-07-21T08:01:05;21.30;97.60
15364;DHT22;7781;49.690;6.472;2022-07-21T08:03:36;21.30;90.60
15364;DHT22;7781;49.690;6.472;2022-07-21T08:06:05;21.30;92.00
15364;DHT22;7781;49.690;6.472;2022-07-21T08:08:34;21.40;91.50
15364;DHT22;7781;49.690;6.472;2022-07-21T08:11:02;21.40;89.40
15364;DHT22;7781;49.690;6.472;2022-07-21T08:13:30;21.60;73.00
15364;DHT22;7781;49.690;6.472;2022-07-21T08:15:58;21.60;90.80
15364;DHT22;7781;49.690;6.472;2022-07-21T08:18:27;21.70;76.30
15364;DHT22;7781;49.690;6.472;2022-07-21T08:20:56;21.70;77.60
15364;DHT22;7781;49.690;6.472;2022-07-21T08:23:25;21.80;89.40
15364;DHT22;7781;49.690;6.472;2022-07-21T08:25:53;21.90;70.60
15364;DHT22;7781;49.690;6.472;2022-07-21T08:28:21;22.00;79.70
15364;DHT22;7781;49.690;6.472;2022-07-21T08:30:49;22.00;73.90
15364;DHT22;7781;49.690;6.472;2022-07-21T08:33:17;22.00;63.90
15364;DHT22;7781;49.690;6.472;2022-07-21T08:35:45;22.20;59.70
15364;DHT22;7781;49.690;6.472;2022-07-21T08:38:15;22.20;54.50
15364;DHT22;7781;49.690;6.472;2022-07-21T08:40:45;22.30;68.00
15364;DHT22;7781;49.690;6.472;2022-07-21T08:43:14;22.40;57.10
15364;DHT22;7781;49.690;6.472;2022-07-21T08:45:42;22.50;53.40
15364;DHT22;7781;49.690;6.472;2022-07-21T08:48:10;22.50;61.60
15364;DHT22;7781;49.690;6.472;2022-07-21T08:50:40;22.50;54.60
15364;DHT22;7781;49.690;6.472;2022-07-21T08:53:09;22.50;52.50
15364;DHT22;7781;49.690;6.472;2022-07-21T08:55:38;22.50;51.10
15364;DHT22;7781;49.690;6.472;2022-07-21T08:58:08;22.60;65.70
15364;DHT22;7781;49.690;6.472;2022-07-21T09:00:38;22.50;50.80
15364;DHT22;7781;49.690;6.472;2022-07-21T09:03:15;22.50;52.80
15364;DHT22;7781;49.690;6.472;2022-07-21T09:05:59;22.60;44.80
15364;DHT22;7781;49.690;6.472;2022-07-21T09:08:32;22.50;50.30
15364;DHT22;7781;49.690;6.472;2022-07-21T09:11:13;22.40;48.20
15364;DHT22;7781;49.690;6.472;2022-07-21T09:13:42;22.30;49.20
15364;DHT22;7781;49.690;6.472;2022-07-21T09:16:11;22.20;50.90
15364;DHT22;7781;49.690;6.472;2022-07-21T09:18:50;22.10;57.60
15364;DHT22;7781;49.690;6.472;2022-07-21T09:21:19;22.00;64.60
15364;DHT22;7781;49.690;6.472;2022-07-21T09:23:47;21.80;91.00
15364;DHT22;7781;49.690;6.472;2022-07-21T09:26:17;21.60;91.30
15364;DHT22;7781;49.690;6.472;2022-07-21T09:28:45;21.60;95.00
15364;DHT22;7781;49.690;6.472;2022-07-21T09:31:13;21.60;92.90
15364;DHT22;7781;49.690;6.472;2022-07-21T09:33:43;21.70;98.90
15364;DHT22;7781;49.690;6.472;2022-07-21T09:36:13;21.70;99.90
15364;DHT22;7781;49.690;6.472;2022-07-21T09:38:43;21.80;91.50
15364;DHT22;7781;49.690;6.472;2022-07-21T09:41:14;21.90;87.30
15364;DHT22;7781;49.690;6.472;2022-07-21T09:43:45;22.10;84.30
15364;DHT22;7781;49.690;6.472;2022-07-21T09:46:17;22.20;68.80
15364;DHT22;7781;49.690;6.472;2022-07-21T09:48:47;22.20;70.70
15364;DHT22;7781;49.690;6.472;2022-07-21T09:51:37;22.30;67.20
15364;DHT22;7781;49.690;6.472;2022-07-21T09:54:10;22.50;58.60
15364;DHT22;7781;49.690;6.472;2022-07-21T09:56:41;22.60;44.50
15364;DHT22;7781;49.690;6.472;2022-07-21T09:59:12;22.80;43.30
15364;DHT22;7781;49.690;6.472;2022-07-21T10:01:41;22.80;43.00
15364;DHT22;7781;49.690;6.472;2022-07-21T10:04:09;22.60;44.30
15364;DHT22;7781;49.690;6.472;2022-07-21T10:06:39;22.60;46.00
15364;DHT22;7781;49.690;6.472;2022-07-21T10:09:09;22.50;46.80
15364;DHT22;7781;49.690;6.472;2022-07-21T10:11:39;22.60;53.20
15364;DHT22;7781;49.690;6.472;2022-07-21T10:14:11;22.80;48.80
15364;DHT22;7781;49.690;6.472;2022-07-21T10:16:39;23.00;36.60
15364;DHT22;7781;49.690;6.472;2022-07-21T10:19:21;23.30;38.10
15364;DHT22;7781;49.690;6.472;2022-07-21T10:21:59;23.30;28.20
15364;DHT22;7781;49.690;6.472;2022-07-21T10:24:30;23.30;30.00
15364;DHT22;7781;49.690;6.472;2022-07-21T10:27:04;23.30;29.70
15364;DHT22;7781;49.690;6.472;2022-07-21T10:29:53;23.40;23.70
15364;DHT22;7781;49.690;6.472;2022-07-21T10:32:30;23.70;21.90
15364;DHT22;7781;49.690;6.472;2022-07-21T10:35:00;23.90;17.30
15364;DHT22;7781;49.690;6.472;2022-07-21T10:37:45;24.00;19.40
15364;DHT22;7781;49.690;6.472;2022-07-21T10:40:35;24.00;18.80
15364;DHT22;7781;49.690;6.472;2022-07-21T10:43:39;23.80;22.90
15364;DHT22;7781;49.690;6.472;2022-07-21T10:46:35;23.70;23.20
15364;DHT22;7781;49.690;6.472;2022-07-21T10:49:05;23.80;25.30
15364;DHT22;7781;49.690;6.472;2022-07-21T10:51:35;24.10;22.00
15364;DHT22;7781;49.690;6.472;2022-07-21T10:54:25;24.20;19.70
15364;DHT22;7781;49.690;6.472;2022-07-21T10:57:27;24.20;12.00
15364;DHT22;7781;49.690;6.472;2022-07-21T11:00:23;24.10;13.80
15364;DHT22;7781;49.690;6.472;2022-07-21T11:02:55;24.20;13.30
15364;DHT22;7781;49.690;6.472;2022-07-21T11:05:26;24.40;15.00
15364;DHT22;7781;49.690;6.472;2022-07-21T11:08:15;24.60;12.40
15364;DHT22;7781;49.690;6.472;2022-07-21T11:10:45;24.70;8.60
15364;DHT22;7781;49.690;6.472;2022-07-21T11:13:16;24.70;6.50
15364;DHT22;7781;49.690;6.472;2022-07-21T11:15:56;24.90;6.20
15364;DHT22;7781;49.690;6.472;2022-07-21T11:18:27;24.80;1.00
15364;DHT22;7781;49.690;6.472;2022-07-21T11:21:17;24.80;2.80
15364;DHT22;7781;49.690;6.472;2022-07-21T11:23:47;25.20;2.40
15364;DHT22;7781;49.690;6.472;2022-07-21T11:26:18;25.60;1.00
15364;DHT22;7781;49.690;6.472;2022-07-21T11:28:46;25.60;1.00
15364;DHT22;7781;49.690;6.472;2022-07-21T11:31:16;25.70;1.00
15364;DHT22;7781;49.690;6.472;2022-07-21T11:33:47;25.60;1.00
15364;DHT22;7781;49.690;6.472;2022-07-21T11:36:24;25.50;1.00
15364;DHT22;7781;49.690;6.472;2022-07-21T11:39:00;25.50;1.00
15364;DHT22;7781;49.690;6.472;2022-07-21T11:41:29;25.40;1.00
15364;DHT22;7781;49.690;6.472;2022-07-21T11:43:57;25.30;1.00
15364;DHT22;7781;49.690;6.472;2022-07-21T11:46:25;25.30;1.00
15364;DHT22;7781;49.690;6.472;2022-07-21T11:49:03;25.30;1.00
15364;DHT22;7781;49.690;6.472;2022-07-21T11:51:31;25.10;1.00
15364;DHT22;7781;49.690;6.472;2022-07-21T11:54:00;24.90;1.00
15364;DHT22;7781;49.690;6.472;2022-07-21T11:56:28;24.80;1.00
15364;DHT22;7781;49.690;6.472;2022-07-21T11:59:10;24.90;1.00
15364;DHT22;7781;49.690;6.472;2022-07-21T12:01:52;24.80;1.00
15364;DHT22;7781;49.690;6.472;2022-07-21T12:04:43;24.80;1.00
15364;DHT22;7781;49.690;6.472;2022-07-21T12:07:15;25.00;1.00
15364;DHT22;7781;49.690;6.472;2022-07-21T12:09:45;25.10;1.00
15364;DHT22;7781;49.690;6.472;2022-07-21T12:12:28;25.50;1.00
15364;DHT22;7781;49.690;6.472;2022-07-21T12:14:57;25.80;1.00
15364;DHT22;7781;49.690;6.472;2022-07-21T12:17:33;25.60;1.00
15364;DHT22;7781;49.690;6.472;2022-07-21T12:20:04;25.50;1.00
15364;DHT22;7781;49.690;6.472;2022-07-21T12:22:38;25.20;1.00
15364;DHT22;7781;49.690;6.472;2022-07-21T12:25:08;25.30;1.00
15364;DHT22;7781;49.690;6.472;2022-07-21T12:27:43;25.30;1.00
15364;DHT22;7781;49.690;6.472;2022-07-21T12:30:34;25.50;1.00
15364;DHT22;7781;49.690;6.472;2022-07-21T12:33:05;25.60;1.00
15364;DHT22;7781;49.690;6.472;2022-07-21T12:35:36;26.10;1.00
15364;DHT22;7781;49.690;6.472;2022-07-21T12:38:08;26.70;1.00
15364;DHT22;7781;49.690;6.472;2022-07-21T12:40:38;27.20;1.00
15364;DHT22;7781;49.690;6.472;2022-07-21T12:43:27;27.80;1.00
15364;DHT22;7781;49.690;6.472;2022-07-21T12:45:57;27.70;1.00
15364;DHT22;7781;49.690;6.472;2022-07-21T12:48:26;28.00;1.00
15364;DHT22;7781;49.690;6.472;2022-07-21T12:51:05;28.60;1.00
15364;DHT22;7781;49.690;6.472;2022-07-21T12:53:36;28.90;1.00
15364;DHT22;7781;49.690;6.472;2022-07-21T12:56:04;28.40;1.00
15364;DHT22;7781;49.690;6.472;2022-07-21T12:58:32;29.00;1.00
15364;DHT22;7781;49.690;6.472;2022-07-21T13:01:00;29.60;1.00
15364;DHT22;7781;49.690;6.472;2022-07-21T13:03:29;29.60;1.00
15364;DHT22;7781;49.690;6.472;2022-07-21T13:05:58;29.40;1.00
15364;DHT22;7781;49.690;6.472;2022-07-21T13:08:28;29.20;1.00
15364;DHT22;7781;49.690;6.472;2022-07-21T13:10:56;28.60;1.00
15364;DHT22;7781;49.690;6.472;2022-07-21T13:13:24;28.70;1.00
15364;DHT22;7781;49.690;6.472;2022-07-21T13:15:53;28.60;1.00
15364;DHT22;7781;49.690;6.472;2022-07-21T13:18:22;28.40;1.00
15364;DHT22;7781;49.690;6.472;2022-07-21T13:20:50;28.10;1.00
15364;DHT22;7781;49.690;6.472;2022-07-21T13:23:19;27.40;1.00
15364;DHT22;7781;49.690;6.472;2022-07-21T13:25:49;27.50;1.00
15364;DHT22;7781;49.690;6.472;2022-07-21T13:28:29;27.60;1.00
15364;DHT22;7781;49.690;6.472;2022-07-21T13:30:58;27.50;1.00
15364;DHT22;7781;49.690;6.472;2022-07-21T13:33:26;27.00;1.00
15364;DHT22;7781;49.690;6.472;2022-07-21T13:35:54;27.00;1.00
15364;DHT22;7781;49.690;6.472;2022-07-21T13:38:22;27.20;1.00
15364;DHT22;7781;49.690;6.472;2022-07-21T13:40:52;27.10;1.00
15364;DHT22;7781;49.690;6.472;2022-07-21T13:43:40;27.20;1.00
15364;DHT22;7781;49.690;6.472;2022-07-21T13:46:08;27.20;1.00
15364;DHT22;7781;49.690;6.472;2022-07-21T13:48:37;27.40;1.00
15364;DHT22;7781;49.690;6.472;2022-07-21T13:51:10;27.50;1.00
15364;DHT22;7781;49.690;6.472;2022-07-21T13:53:39;27.50;1.00
15364;DHT22;7781;49.690;6.472;2022-07-21T13:56:08;27.20;1.00
15364;DHT22;7781;49.690;6.472;2022-07-21T13:58:37;26.90;1.00
15364;DHT22;7781;49.690;6.472;2022-07-21T14:01:06;26.80;1.00
15364;DHT22;7781;49.690;6.472;2022-07-21T14:03:35;26.80;1.00
15364;DHT22;7781;49.690;6.472;2022-07-21T14:06:03;26.60;1.00
15364;DHT22;7781;49.690;6.472;2022-07-21T14:08:32;26.80;1.00
15364;DHT22;7781;49.690;6.472;2022-07-21T14:11:00;27.30;1.00
15364;DHT22;7781;49.690;6.472;2022-07-21T14:13:30;28.30;1.00
15364;DHT22;7781;49.690;6.472;2022-07-21T14:15:58;28.90;1.00
15364;DHT22;7781;49.690;6.472;2022-07-21T14:18:26;29.10;1.00
15364;DHT22;7781;49.690;6.472;2022-07-21T14:20:54;29.20;1.00
15364;DHT22;7781;49.690;6.472;2022-07-21T14:23:23;29.00;1.00
15364;DHT22;7781;49.690;6.472;2022-07-21T14:25:51;28.90;1.00
15364;DHT22;7781;49.690;6.472;2022-07-21T14:28:20;29.40;1.00
15364;DHT22;7781;49.690;6.472;2022-07-21T14:30:51;29.90;1.00
15364;DHT22;7781;49.690;6.472;2022-07-21T14:33:26;29.90;1.00
15364;DHT22;7781;49.690;6.472;2022-07-21T14:35:55;29.20;1.00
15364;DHT22;7781;49.690;6.472;2022-07-21T14:38:23;28.40;1.00
15364;DHT22;7781;49.690;6.472;2022-07-21T14:40:52;28.30;1.00
15364;DHT22;7781;49.690;6.472;2022-07-21T14:43:20;27.80;1.00
15364;DHT22;7781;49.690;6.472;2022-07-21T14:45:49;27.60;1.00
15364;DHT22;7781;49.690;6.472;2022-07-21T14:48:17;27.40;1.00
15364;DHT22;7781;49.690;6.472;2022-07-21T14:50:50;27.30;1.00
15364;DHT22;7781;49.690;6.472;2022-07-21T14:53:18;27.10;1.00
15364;DHT22;7781;49.690;6.472;2022-07-21T14:55:46;27.00;1.00
15364;DHT22;7781;49.690;6.472;2022-07-21T14:58:14;26.90;1.00
15364;DHT22;7781;49.690;6.472;2022-07-21T15:00:42;26.80;1.00
15364;DHT22;7781;49.690;6.472;2022-07-21T15:03:12;26.70;1.00
15364;DHT22;7781;49.690;6.472;2022-07-21T15:05:42;26.50;1.00
15364;DHT22;7781;49.690;6.472;2022-07-21T15:08:10;26.40;1.00
15364;DHT22;7781;49.690;6.472;2022-07-21T15:10:41;26.30;1.00
15364;DHT22;7781;49.690;6.472;2022-07-21T15:13:09;26.30;1.00
15364;DHT22;7781;49.690;6.472;2022-07-21T15:15:38;26.30;1.00
15364;DHT22;7781;49.690;6.472;2022-07-21T15:18:07;26.40;1.00
15364;DHT22;7781;49.690;6.472;2022-07-21T15:20:37;26.50;1.00
15364;DHT22;7781;49.690;6.472;2022-07-21T15:23:05;26.50;1.00
15364;DHT22;7781;49.690;6.472;2022-07-21T15:25:35;26.50;1.00
15364;DHT22;7781;49.690;6.472;2022-07-21T15:28:03;26.50;1.00
15364;DHT22;7781;49.690;6.472;2022-07-21T15:30:33;26.50;1.00
15364;DHT22;7781;49.690;6.472;2022-07-21T15:33:01;26.30;1.00
15364;DHT22;7781;49.690;6.472;2022-07-21T15:35:29;26.10;1.00
15364;DHT22;7781;49.690;6.472;2022-07-21T15:38:01;26.00;1.00
15364;DHT22;7781;49.690;6.472;2022-07-21T15:40:37;25.90;1.00
15364;DHT22;7781;49.690;6.472;2022-07-21T15:43:05;25.80;1.00
15364;DHT22;7781;49.690;6.472;2022-07-21T15:45:33;25.80;1.00
15364;DHT22;7781;49.690;6.472;2022-07-21T15:48:01;25.90;1.00
15364;DHT22;7781;49.690;6.472;2022-07-21T15:50:29;26.00;1.00
15364;DHT22;7781;49.690;6.472;2022-07-21T15:52:58;26.10;1.00
15364;DHT22;7781;49.690;6.472;2022-07-21T15:55:28;26.00;1.00
15364;DHT22;7781;49.690;6.472;2022-07-21T15:57:56;25.90;1.00
15364;DHT22;7781;49.690;6.472;2022-07-21T16:00:24;25.80;1.00
15364;DHT22;7781;49.690;6.472;2022-07-21T16:02:53;25.80;1.00
15364;DHT22;7781;49.690;6.472;2022-07-21T16:05:25;25.80;1.00
15364;DHT22;7781;49.690;6.472;2022-07-21T16:07:54;25.80;1.00
15364;DHT22;7781;49.690;6.472;2022-07-21T16:10:27;25.70;1.00